Weather observations for the past three days for
Mineral Wells, Mineral Wells Airport
Metric (Imperial)
Date Time (cdt) Wind (kph) Vis. (km) Weather Sky Cond. Temperature (ºC) Relative Humidity Wind Chill (°C) Heat Index (°C) Pressure Precipitation (cm)
Air Dwpt 6 hour altimeter (cm) sea level (mb) 1 hr 3 hr 6 hr
Max. Min.
07 04:53 NW 7 16.09 Fair CLR 10.6 8.9 89% 76.43 1018.4
07 03:53 NW 6 16.09 Fair CLR 10.6 8.9 89% 76.38 1017.5
07 02:53 N 7 16.09 Fair CLR 11.1 8.9 86% 76.33 1017.0
07 01:53 N 9 16.09 Fair CLR 11.1 9.4 89% 76.33 1017.0
07 00:53 NE 6 16.09 Fair CLR 12.2 9.4 17.8 12.2 83% 76.28 1016.2
06 23:53 NE 11 16.09 Fair CLR 12.8 10 83% 76.28 1016.3
06 22:53 NE 11 16.09 Fair CLR 13.3 10 81% 76.25 1016.2
06 21:53 NE 9 16.09 Fair CLR 14.4 10.6 78% 76.23 1015.8
06 20:53 N 15 16.09 Fair CLR 15 10.6 75% 76.17 1015.0
06 19:53 N 13 16.09 Fair CLR 16.7 10.6 67% 76.1 1013.8
06 18:53 N 19 16.09 A Few Clouds FEW035 17.8 11.1 21.1 15 65% 76.05 1013.2
06 17:53 NE 19 16.09 Mostly Cloudy BKN036 20 11.7 59% 76 1012.3
06 16:53 NE 15 16.09 A Few Clouds FEW034 20 11.7 59% 75.97 1012.0
06 15:53 NE 7 16.09 A Few Clouds FEW031 19.4 11.7 61% 76 1012.4
06 14:53 NE 11 16.09 A Few Clouds FEW028 18.3 10.6 61% 76.05 1013.1
06 13:53 Vrbl 7 16.09 A Few Clouds FEW025 16.7 10 65% 76.1 1013.7
06 12:53 N 13 16.09 Overcast OVC022 15.6 9.4 15.6 10.6 67% 76.1 1013.8 0.15
06 11:53 N 22 16.09 Overcast OVC017 13.3 8.9 75% 76.07 1013.7
06 10:53 N 13 16.09 Overcast OVC013 11.1 8.9 86% 76.12 1014.2
06 09:53 N 20 G 39 8.05 Light Rain Fog/Mist SCT013 BKN100 OVC120 10.6 8.9 89% 76.05 1013.3 0.13 0.15
06 08:53 N 11 16.09 Light Rain OVC014 10.6 8.9 89% 76.1 1014.0 0.03
06 07:53 N 20 16.09 Overcast OVC014 11.1 7.8 80% 76 1012.6
06 06:53 N 22 G 33 16.09 Overcast OVC016 11.1 7.2 15 11.1 77% 75.97 1012.1
06 05:53 N 26 16.09 Overcast OVC018 11.1 7.8 80% 75.92 1011.2
06 04:53 N 17 16.09 Overcast OVC022 12.2 8.9 80% 75.84 1010.1
06 03:53 N 20 16.09 Overcast OVC024 12.8 8.9 77% 75.79 1009.4
06 02:53 N 17 16.09 Overcast OVC026 13.9 10 78% 75.77 1008.9
06 01:53 N 15 16.09 Mostly Cloudy BKN027 14.4 11.1 81% 75.77 1009.0
06 00:53 NE 13 16.09 Overcast OVC029 15 11.1 22.2 15 78% 75.72 1008.4
05 23:53 N 17 16.09 Overcast OVC031 15 10.6 75% 75.74 1008.8
05 22:53 N 19 16.09 Overcast OVC032 15.6 11.7 78% 75.72 1008.5
05 21:53 N 19 16.09 Fair CLR 17.2 12.2 73% 75.67 1007.6
05 20:53 N 15 16.09 Fair CLR 19.4 12.8 66% 75.51 1005.7
05 19:53 N 17 G 31 16.09 Fair CLR 21.1 13.9 64% 75.44 1004.7
05 18:53 N 24 16.09 Fair CLR 22.2 13.9 31.7 22.2 59% 75.41 1004.4
05 17:53 N 20 16.09 Fair CLR 25 15.6 56% 26 75.36 1003.3
05 16:53 N 22 16.09 Fair CLR 28.9 16.7 48% 29 75.31 1002.7
05 15:53 N 19 16.09 Fair CLR 30 15 40% 30 75.34 1002.8
05 14:53 W 15 16.09 Fair CLR 31.1 17.2 43% 32 75.34 1002.9
05 13:53 SW 19 16.09 Fair CLR 30.6 17.8 46% 31 75.36 1003.3
05 12:53 SW 15 16.09 Fair CLR 28.9 19.4 28.9 20 57% 30 75.39 1003.6
05 11:53 SW 20 16.09 Fair CLR 27.8 18.9 58% 29 75.39 1003.6
05 10:53 SW 20 16.09 Fair CLR 27.2 19.4 62% 29 75.36 1003.2
05 09:53 S 17 G 33 16.09 Fair CLR 25.6 19.4 69% 27 75.34 1003.1
05 08:53 S 17 16.09 Fair CLR 23.3 18.9 76% 75.36 1003.3
05 07:53 S 15 16.09 Fair CLR 20.6 17.8 84% 75.31 1002.8
05 06:53 S 15 16.09 Fair CLR 20 17.2 23.3 20 84% 75.29 1002.3
05 05:53 S 11 16.09 Fair CLR 20.6 17.2 81% 75.26 1001.9
05 04:53 S 17 16.09 Fair CLR 21.1 17.2 79% 75.26 1001.9
05 03:53 S 20 16.09 Fair CLR 21.7 17.2 76% 75.26 1002.0
05 02:53 S 19 G 43 16.09 Fair CLR 22.8 17.2 71% 75.31 1002.4
05 01:53 S 17 16.09 Fair CLR 22.8 17.2 71% 75.36 1003.2
05 00:53 S 24 G 39 16.09 Fair CLR 23.3 17.2 26.7 22.8 69% 75.36 1003.4
04 23:53 S 20 G 39 16.09 Fair CLR 23.9 17.2 66% 25 75.39 1003.6
04 22:53 S 19 16.09 Fair CLR 23.9 17.2 66% 25 75.36 1003.6
04 21:53 SE 19 16.09 Fair CLR 23.3 17.8 71% 75.36 1003.5
04 20:53 SE 15 16.09 Fair CLR 23.9 17.2 66% 25 75.36 1003.4
04 19:53 S 15 16.09 Fair CLR 25 17.8 64% 26 75.36 1003.6
04 18:53 S 22 16.09 Fair CLR 26.7 17.2 28.9 25.6 56% 27 75.39 1004.1
04 17:53 S 26 G 41 16.09 Fair CLR 27.2 17.8 57% 28 75.41 1004.4
04 15:53 S 26 G 41 16.09 Fair CLR 28.9 17.2 49% 29 75.51 1005.6
04 14:53 S 20 G 39 16.09 Fair CLR 28.3 16.1 48% 29 75.62 1007.0
04 13:53 S 22 G 39 16.09 Fair CLR 27.2 16.1 51% 28 75.67 1007.8
04 12:53 S 28 16.09 Fair CLR 26.1 15.6 26.1 12.8 52% 27 75.74 1008.7
04 11:53 S 28 G 50 16.09 Fair CLR 24.4 15 56% 26 75.79 1009.5
04 10:53 S 30 16.09 Fair CLR 22.2 14.4 61% 75.87 1010.4
04 09:53 S 30 G 43 16.09 Fair CLR 20.6 13.9 66% 75.92 1011.0
04 08:53 S 20 G 31 16.09 Fair CLR 17.8 12.8 73% 75.92 1011.1
04 07:53 SE 13 16.09 Fair CLR 15 11.7 81% 75.92 1011.2
04 06:53 SE 19 16.09 Fair CLR 12.8 10.6 15.6 12.2 87% 75.87 1010.6
04 05:53 SE 15 16.09 Fair CLR 12.8 9.4 80% 75.9 1010.8
Date Time (cdt) Wind (kph) Vis. (km) Weather Sky Cond. Air Dwpt Max. Min. Relative Humidity Wind Chill (°C) Heat Index (°C) altimeter (cm) sea level (mb) 1 hr 3 hr 6 hr
6 hour
Temperature (ºC) Pressure Precipitation (cm)